Time;durP1;ratioP1;P1;durP2;ratioP2;P2;SDS_P1;SDS_P2;PMS_P1;PMS_P2;Temp;Humidity;BMP_temperature;BMP_pressure;BME280_temperature;BME280_humidity;BME280_pressure;Samples;Min_cycle;Max_cycle;Signal;HPM_P1;HPM_P2
2023/09/14 00:02:11;;;;;;;3.35;0.60;;;14.70;99.90;;;;;;5023475;28;20028;-71
2023/09/14 00:04:38;;;;;;;4.28;0.90;;;14.70;99.90;;;;;;5042115;28;20032;-70
2023/09/14 00:07:04;;;;;;;5.15;0.80;;;14.70;99.90;;;;;;5043369;28;20040;-71
2023/09/14 00:09:31;;;;;;;3.22;0.65;;;14.70;99.90;;;;;;5041798;28;20041;-70
2023/09/14 00:11:57;;;;;;;3.05;0.70;;;14.80;99.90;;;;;;5024806;28;20025;-71
2023/09/14 00:14:23;;;;;;;15.18;1.13;;;14.80;99.90;;;;;;5046528;28;20567;-71
2023/09/14 00:16:50;;;;;;;3.35;0.88;;;14.80;99.90;;;;;;5042129;28;20041;-70
2023/09/14 00:19:16;;;;;;;3.17;0.90;;;14.80;99.90;;;;;;5011766;28;20404;-71
2023/09/14 00:21:43;;;;;;;4.57;1.15;;;14.90;99.90;;;;;;5043268;28;20037;-71
2023/09/14 00:24:09;;;;;;;4.43;0.90;;;14.90;99.90;;;;;;5037309;28;20405;-71
2023/09/14 00:26:36;;;;;;;3.08;0.70;;;14.90;99.90;;;;;;5041117;28;20044;-71
2023/09/14 00:29:02;;;;;;;3.22;0.70;;;14.90;99.90;;;;;;5047032;28;20024;-70
2023/09/14 00:31:28;;;;;;;2.78;0.70;;;14.90;99.90;;;;;;5045331;28;20060;-71
2023/09/14 00:33:56;;;;;;;3.25;0.68;;;15.00;99.90;;;;;;5038077;28;20037;-71
2023/09/14 00:36:22;;;;;;;6.93;1.08;;;15.00;99.90;;;;;;5028219;28;20052;-70
2023/09/14 00:38:49;;;;;;;4.78;0.90;;;15.00;99.90;;;;;;5044416;28;20033;-71
2023/09/14 00:41:15;;;;;;;7.50;1.10;;;14.90;99.90;;;;;;5028766;28;20510;-70
2023/09/14 00:43:41;;;;;;;4.95;0.80;;;14.90;99.90;;;;;;5026065;28;20033;-70
2023/09/14 00:46:08;;;;;;;3.65;0.70;;;14.90;99.90;;;;;;5038697;28;20037;-71
2023/09/14 00:48:35;;;;;;;4.80;1.08;;;14.90;99.90;;;;;;5036659;28;20037;-71
2023/09/14 00:51:03;;;;;;;4.07;0.75;;;14.90;99.90;;;;;;5045359;28;20045;-71
2023/09/14 00:53:29;;;;;;;2.95;0.90;;;14.90;99.90;;;;;;5038028;28;20033;-71
2023/09/14 00:55:57;;;;;;;3.15;0.80;;;14.90;99.90;;;;;;5044259;28;20443;-72
2023/09/14 00:58:24;;;;;;;4.57;1.10;;;14.90;99.90;;;;;;5022816;28;20033;-71
2023/09/14 01:00:51;;;;;;;2.85;0.55;;;14.90;99.90;;;;;;5037883;28;20428;-71
2023/09/14 01:03:18;;;;;;;4.00;0.60;;;14.90;99.90;;;;;;5059527;28;20033;-70
2023/09/14 01:05:45;;;;;;;2.40;0.63;;;14.90;99.90;;;;;;5046291;28;20468;-72
2023/09/14 01:08:11;;;;;;;2.83;0.60;;;14.90;99.90;;;;;;5041559;28;20041;-71
2023/09/14 01:10:37;;;;;;;1.92;0.50;;;14.90;99.90;;;;;;5045896;28;20045;-71
2023/09/14 01:13:04;;;;;;;4.43;0.50;;;14.90;99.90;;;;;;5022217;28;20496;-70
2023/09/14 01:15:38;;;;;;;1.63;0.50;;;14.90;99.90;;;;;;5044492;28;20041;-71
2023/09/14 01:18:19;;;;;;;2.10;0.50;;;15.00;99.90;;;;;;5043916;28;20036;-71
2023/09/14 01:21:10;;;;;;;5.68;0.75;;;15.00;99.90;;;;;;5023253;28;20057;-71
2023/09/14 01:23:51;;;;;;;3.40;0.50;;;15.00;99.90;;;;;;5056052;28;20037;-71
2023/09/14 01:26:19;;;;;;;2.47;0.70;;;15.00;99.90;;;;;;5037170;28;20399;-71
2023/09/14 01:28:45;;;;;;;2.58;0.50;;;15.00;99.90;;;;;;5031665;28;20044;-71
2023/09/14 01:31:12;;;;;;;3.72;0.60;;;15.00;99.90;;;;;;5054287;28;20037;-70
2023/09/14 01:33:38;;;;;;;1.92;0.50;;;15.00;99.90;;;;;;5040064;28;20044;-71
2023/09/14 01:36:41;;;;;;;2.75;0.55;;;15.00;99.90;;;;;;5062467;28;20033;-72
2023/09/14 01:39:10;;;;;;;2.08;0.50;;;15.10;99.90;;;;;;5051858;28;20049;-71
2023/09/14 01:41:37;;;;;;;2.58;0.60;;;15.00;99.90;;;;;;5037860;28;20051;-72
2023/09/14 01:44:04;;;;;;;3.38;0.40;;;15.00;99.90;;;;;;5038751;28;20041;-71
2023/09/14 01:46:35;;;;;;;2.70;0.43;;;15.00;99.90;;;;;;5046031;28;20293;-71
2023/09/14 01:49:01;;;;;;;1.73;0.50;;;15.00;99.90;;;;;;5024084;28;20074;-72
2023/09/14 01:51:29;;;;;;;2.60;0.52;;;15.00;99.90;;;;;;5040426;28;20056;-72
2023/09/14 01:53:56;;;;;;;2.55;0.75;;;15.00;99.90;;;;;;5044844;28;20074;-71
2023/09/14 01:56:23;;;;;;;2.35;0.52;;;14.90;99.90;;;;;;5037970;28;20064;-72
2023/09/14 01:58:50;;;;;;;3.00;0.50;;;14.90;99.90;;;;;;5043476;28;20040;-71
2023/09/14 02:01:16;;;;;;;2.83;0.65;;;14.90;99.90;;;;;;5027039;28;20563;-71
2023/09/14 02:03:42;;;;;;;2.55;0.50;;;14.80;99.90;;;;;;5041265;28;20043;-71
2023/09/14 02:06:08;;;;;;;3.05;0.57;;;14.80;99.90;;;;;;5023452;28;20037;-72
2023/09/14 02:08:35;;;;;;;2.88;0.60;;;14.70;99.90;;;;;;5044853;28;20032;-71
2023/09/14 02:11:02;;;;;;;2.40;0.65;;;14.70;99.90;;;;;;5044367;28;20410;-71
2023/09/14 02:13:29;;;;;;;2.40;0.60;;;14.70;99.90;;;;;;5044431;28;20025;-72
2023/09/14 02:15:55;;;;;;;3.13;0.55;;;14.70;99.90;;;;;;5045832;28;20384;-72
2023/09/14 02:18:22;;;;;;;2.78;0.50;;;14.70;99.90;;;;;;5043104;28;20527;-71
2023/09/14 02:20:48;;;;;;;4.05;0.50;;;14.70;99.90;;;;;;5050431;28;20039;-71
2023/09/14 02:23:17;;;;;;;2.20;0.50;;;14.60;99.90;;;;;;5019382;28;20029;-71
2023/09/14 02:25:43;;;;;;;1.83;0.63;;;14.60;99.90;;;;;;5037107;28;20500;-71
2023/09/14 02:28:10;;;;;;;3.30;0.52;;;14.40;99.90;;;;;;5044821;28;20068;-71
2023/09/14 02:30:39;;;;;;;3.15;0.68;;;14.40;99.90;;;;;;5053567;28;20047;-71
2023/09/14 02:33:07;;;;;;;4.35;0.70;;;14.30;99.90;;;;;;5042783;28;20048;-71
2023/09/14 02:35:36;;;;;;;4.57;0.60;;;14.20;99.90;;;;;;5048469;28;20029;-72
2023/09/14 02:38:05;;;;;;;2.95;0.60;;;14.10;99.90;;;;;;5047221;28;20032;-71
2023/09/14 02:40:32;;;;;;;1.83;0.40;;;14.10;99.90;;;;;;5031908;28;20080;-72
2023/09/14 02:42:58;;;;;;;1.85;0.50;;;14.00;99.90;;;;;;5050412;28;20241;-71
2023/09/14 02:45:25;;;;;;;2.97;0.60;;;13.90;99.90;;;;;;5039720;28;20044;-71
2023/09/14 02:47:51;;;;;;;3.35;0.80;;;13.90;99.90;;;;;;5041655;28;20064;-71
2023/09/14 02:50:17;;;;;;;3.42;0.80;;;13.80;99.90;;;;;;5020888;28;20026;-70
2023/09/14 02:52:44;;;;;;;2.75;0.60;;;13.70;99.90;;;;;;5023686;28;20068;-70
2023/09/14 02:55:10;;;;;;;3.03;0.60;;;13.70;99.90;;;;;;5042533;28;20044;-71
2023/09/14 02:57:37;;;;;;;2.40;0.70;;;13.60;99.90;;;;;;5047566;28;20037;-71
2023/09/14 03:00:06;;;;;;;2.70;0.57;;;13.60;99.90;;;;;;5027378;28;20431;-71
2023/09/14 03:02:33;;;;;;;2.53;0.52;;;13.60;99.90;;;;;;5031440;28;20396;-70
2023/09/14 03:04:59;;;;;;;3.00;0.60;;;13.50;99.90;;;;;;5046509;28;20052;-71
2023/09/14 03:07:26;;;;;;;3.67;0.70;;;13.40;99.90;;;;;;5039103;28;20499;-71
2023/09/14 03:09:54;;;;;;;1.85;0.50;;;13.40;99.90;;;;;;5045482;28;20678;-70
2023/09/14 03:12:20;;;;;;;3.40;0.80;;;13.30;99.90;;;;;;5060865;28;20032;-71
2023/09/14 03:14:46;;;;;;;4.05;0.75;;;13.30;99.90;;;;;;5046447;28;20041;-71
2023/09/14 03:17:13;;;;;;;2.35;0.50;;;13.20;99.90;;;;;;5043700;28;20033;-71
2023/09/14 03:19:42;;;;;;;2.33;0.60;;;13.20;99.90;;;;;;5047539;28;20049;-71
2023/09/14 03:22:08;;;;;;;1.85;0.43;;;13.10;99.90;;;;;;5056716;28;20041;-71
2023/09/14 03:24:35;;;;;;;5.43;0.70;;;13.10;99.90;;;;;;5053331;28;20041;-71
2023/09/14 03:27:02;;;;;;;2.72;0.50;;;13.10;99.90;;;;;;5035693;28;20042;-71
2023/09/14 03:29:29;;;;;;;3.35;0.50;;;13.00;99.90;;;;;;5047535;28;20049;-71
2023/09/14 03:31:55;;;;;;;2.97;0.60;;;13.00;99.90;;;;;;5026345;28;20047;-72
2023/09/14 03:34:22;;;;;;;5.93;0.80;;;12.90;99.90;;;;;;5048748;28;20047;-71
2023/09/14 03:36:49;;;;;;;3.03;0.50;;;12.90;99.90;;;;;;5040592;28;20041;-71
2023/09/14 03:39:16;;;;;;;2.72;0.60;;;12.90;99.90;;;;;;5051461;28;20044;-71
2023/09/14 03:41:42;;;;;;;3.28;0.60;;;12.90;99.90;;;;;;5042645;28;20511;-71
2023/09/14 03:44:08;;;;;;;1.52;0.40;;;12.80;99.90;;;;;;5034006;28;20755;-71
2023/09/14 03:46:35;;;;;;;3.10;0.57;;;12.80;99.90;;;;;;5043333;28;20403;-71
2023/09/14 03:49:02;;;;;;;2.53;0.60;;;12.80;99.90;;;;;;5041465;28;20064;-71
2023/09/14 03:51:29;;;;;;;2.10;0.50;;;12.80;99.90;;;;;;5035884;28;20041;-71
2023/09/14 03:53:55;;;;;;;2.20;0.50;;;12.70;99.90;;;;;;5048454;28;20420;-71
2023/09/14 03:56:22;;;;;;;1.90;0.50;;;12.70;99.90;;;;;;5050891;28;20040;-71
2023/09/14 03:58:49;;;;;;;1.95;0.60;;;12.70;99.90;;;;;;5054422;28;20040;-71
2023/09/14 04:01:16;;;;;;;2.00;0.70;;;12.70;99.90;;;;;;5023599;28;20049;-71
2023/09/14 04:03:42;;;;;;;2.60;0.50;;;12.70;99.90;;;;;;5041132;28;20649;-71
2023/09/14 04:06:08;;;;;;;1.63;0.52;;;12.60;99.90;;;;;;5022406;28;20045;-71
2023/09/14 04:08:35;;;;;;;2.25;0.60;;;12.60;99.90;;;;;;5024181;28;20044;-71
2023/09/14 04:11:01;;;;;;;2.55;0.68;;;12.60;99.90;;;;;;5044764;28;20040;-71
2023/09/14 04:13:32;;;;;;;1.80;0.60;;;12.60;99.90;;;;;;5049261;28;20037;-71
2023/09/14 04:16:05;;;;;;;3.15;0.80;;;12.60;99.90;;;;;;5055260;28;20044;-71
2023/09/14 04:18:36;;;;;;;2.60;0.40;;;12.50;99.90;;;;;;5043956;28;20056;-71
2023/09/14 04:21:04;;;;;;;3.58;0.73;;;12.50;99.90;;;;;;5048559;28;20495;-72
2023/09/14 04:23:31;;;;;;;1.77;0.60;;;12.50;99.90;;;;;;5028824;28;20049;-71
2023/09/14 04:26:00;;;;;;;2.53;0.68;;;12.50;99.90;;;;;;5060001;28;20048;-71
2023/09/14 04:28:27;;;;;;;3.00;0.60;;;12.50;99.90;;;;;;5058091;28;20056;-71
2023/09/14 04:31:01;;;;;;;3.00;0.65;;;12.50;99.90;;;;;;5044919;28;20037;-71
2023/09/14 04:33:29;;;;;;;1.52;0.52;;;12.40;99.90;;;;;;5029211;28;20045;-71
2023/09/14 04:35:57;;;;;;;3.25;0.68;;;12.40;99.90;;;;;;5064942;28;20056;-71
2023/09/14 04:38:24;;;;;;;2.35;0.60;;;12.40;99.90;;;;;;5043575;28;20037;-70
2023/09/14 04:40:51;;;;;;;3.00;0.68;;;12.40;99.90;;;;;;5044213;28;20412;-71
2023/09/14 04:43:18;;;;;;;2.75;0.50;;;12.30;99.90;;;;;;5042852;28;20037;-70
2023/09/14 04:45:47;;;;;;;2.25;0.70;;;12.30;99.90;;;;;;5019207;28;20033;-71
2023/09/14 04:48:14;;;;;;;3.15;0.90;;;12.30;99.90;;;;;;5051217;28;20033;-71
2023/09/14 04:50:42;;;;;;;1.88;0.80;;;12.30;99.90;;;;;;5049062;28;20040;-70
2023/09/14 04:53:09;;;;;;;1.30;0.52;;;12.30;99.90;;;;;;5041277;28;20037;-71
2023/09/14 04:55:36;;;;;;;2.75;0.90;;;12.30;99.90;;;;;;5035842;28;20040;-71
2023/09/14 04:58:02;;;;;;;1.65;0.50;;;12.30;99.90;;;;;;5039165;28;20395;-70
2023/09/14 05:00:28;;;;;;;2.53;0.75;;;12.30;99.90;;;;;;5039951;28;20049;-71
2023/09/14 05:02:55;;;;;;;1.63;0.60;;;12.30;99.90;;;;;;5040031;28;20471;-71
2023/09/14 05:05:21;;;;;;;1.83;0.60;;;12.30;99.90;;;;;;5040690;28;20036;-71
2023/09/14 05:07:48;;;;;;;2.38;0.57;;;12.30;99.90;;;;;;5059045;28;20029;-71
2023/09/14 05:10:16;;;;;;;3.22;0.60;;;12.20;99.90;;;;;;5058254;28;20055;-71
2023/09/14 05:12:43;;;;;;;3.30;0.68;;;12.20;99.90;;;;;;5043187;28;20051;-71
2023/09/14 05:15:09;;;;;;;2.45;0.70;;;12.20;99.90;;;;;;5043671;28;20033;-71
2023/09/14 05:17:36;;;;;;;3.38;0.82;;;12.20;99.90;;;;;;5044678;28;20045;-71
2023/09/14 05:20:06;;;;;;;1.92;0.68;;;12.20;99.90;;;;;;5024017;28;20045;-71
2023/09/14 05:22:32;;;;;;;2.28;0.70;;;12.20;99.90;;;;;;5054671;28;20040;-71
2023/09/14 05:24:58;;;;;;;2.00;0.50;;;12.20;99.90;;;;;;5039558;28;20033;-70
2023/09/14 05:27:25;;;;;;;3.72;1.08;;;12.30;99.90;;;;;;5039612;28;20043;-70
2023/09/14 05:29:52;;;;;;;6.13;2.85;;;12.30;99.90;;;;;;5041433;28;20059;-70
2023/09/14 05:32:18;;;;;;;4.65;2.33;;;12.30;99.90;;;;;;5050950;28;20051;-71
2023/09/14 05:34:44;;;;;;;4.40;1.73;;;12.30;99.90;;;;;;5042052;28;20041;-72
2023/09/14 05:37:11;;;;;;;3.90;1.55;;;12.40;99.90;;;;;;5048738;28;20037;-71
2023/09/14 05:39:37;;;;;;;4.05;1.27;;;12.30;99.90;;;;;;5046575;28;20048;-71
2023/09/14 05:42:04;;;;;;;2.22;1.27;;;12.40;99.90;;;;;;5046138;28;20033;-71
2023/09/14 05:44:30;;;;;;;3.33;1.20;;;12.40;99.90;;;;;;5028452;28;20044;-72
2023/09/14 05:46:56;;;;;;;3.97;1.08;;;12.50;99.90;;;;;;5060164;28;20029;-72
2023/09/14 05:49:23;;;;;;;3.33;1.00;;;12.50;99.90;;;;;;5044354;28;20056;-70
2023/09/14 05:51:49;;;;;;;3.03;0.90;;;12.50;99.90;;;;;;5057996;28;20353;-71
2023/09/14 05:54:17;;;;;;;2.70;1.15;;;12.60;99.90;;;;;;5035113;28;20029;-72
2023/09/14 05:56:43;;;;;;;2.45;0.70;;;12.60;99.90;;;;;;5034125;28;20040;-71
2023/09/14 05:59:10;;;;;;;2.10;0.63;;;12.70;99.90;;;;;;5017995;28;20497;-71
2023/09/14 06:01:36;;;;;;;2.67;0.90;;;12.80;99.90;;;;;;5035435;28;20052;-71
2023/09/14 06:04:03;;;;;;;2.38;0.80;;;12.80;99.90;;;;;;5038039;28;20034;-71
2023/09/14 06:06:29;;;;;;;5.00;1.40;;;12.90;99.90;;;;;;5058064;28;20064;-71
2023/09/14 06:08:56;;;;;;;5.53;1.52;;;13.00;99.90;;;;;;5040042;28;20045;-72
2023/09/14 06:11:27;;;;;;;4.40;1.60;;;13.10;99.90;;;;;;5038148;28;20037;-71
2023/09/14 06:13:54;;;;;;;4.13;1.63;;;13.20;99.90;;;;;;5046526;28;20041;-71
2023/09/14 06:16:20;;;;;;;4.72;1.30;;;13.30;99.90;;;;;;5042925;28;20034;-70
2023/09/14 06:18:47;;;;;;;3.83;1.58;;;13.40;99.90;;;;;;5036737;28;20052;-71
2023/09/14 06:21:13;;;;;;;3.88;1.25;;;13.60;99.90;;;;;;5043550;28;20412;-70
2023/09/14 06:23:40;;;;;;;2.58;0.80;;;13.70;99.90;;;;;;5043722;28;20037;-71
2023/09/14 06:26:06;;;;;;;2.90;1.10;;;13.80;99.90;;;;;;5038113;28;20052;-71
2023/09/14 06:28:33;;;;;;;12.82;11.02;;;14.00;99.90;;;;;;5036141;28;20059;-71
2023/09/14 06:30:59;;;;;;;15.50;11.05;;;14.10;99.90;;;;;;5047456;28;20033;-71
2023/09/14 06:33:26;;;;;;;8.85;6.93;;;14.30;99.90;;;;;;5019485;28;20044;-71
2023/09/14 06:35:52;;;;;;;6.13;4.00;;;14.40;99.90;;;;;;5046019;28;20039;-71
2023/09/14 06:38:18;;;;;;;5.55;2.90;;;14.60;99.90;;;;;;5048775;28;20037;-71
2023/09/14 06:40:45;;;;;;;7.25;2.50;;;14.70;99.90;;;;;;5039114;28;20044;-70
2023/09/14 06:43:11;;;;;;;2.88;1.48;;;14.80;99.90;;;;;;5042291;28;20041;-71
2023/09/14 06:45:38;;;;;;;4.45;1.30;;;14.90;99.90;;;;;;5047460;28;20037;-71
2023/09/14 06:48:05;;;;;;;4.65;1.10;;;15.10;99.90;;;;;;5053210;28;20037;-71
2023/09/14 06:50:31;;;;;;;3.20;1.15;;;15.10;99.90;;;;;;5020986;28;20034;-71
2023/09/14 06:52:57;;;;;;;4.95;1.30;;;15.20;99.90;;;;;;5027578;28;20026;-71
2023/09/14 06:55:24;;;;;;;2.97;0.95;;;15.30;99.90;;;;;;5043157;28;20048;-71
2023/09/14 06:57:50;;;;;;;5.15;1.40;;;15.30;99.90;;;;;;5025017;28;20033;-71
2023/09/14 07:00:21;;;;;;;5.45;1.15;;;15.40;99.90;;;;;;5047335;28;20056;-71
2023/09/14 07:02:48;;;;;;;3.35;1.35;;;15.50;99.90;;;;;;5041888;28;20041;-71
2023/09/14 07:05:14;;;;;;;5.35;1.67;;;15.50;99.90;;;;;;5045774;28;20029;-72
2023/09/14 07:07:41;;;;;;;5.75;1.25;;;15.60;99.90;;;;;;5049402;28;20059;-71
2023/09/14 07:10:08;;;;;;;6.45;1.45;;;15.60;99.90;;;;;;5025928;28;20388;-72
2023/09/14 07:12:35;;;;;;;4.82;1.20;;;15.70;99.90;;;;;;5040289;28;20029;-71
2023/09/14 07:15:03;;;;;;;4.60;1.30;;;15.80;99.90;;;;;;5033680;28;20041;-70
2023/09/14 07:17:30;;;;;;;3.42;1.08;;;15.80;99.90;;;;;;5041395;28;20037;-71
2023/09/14 07:19:56;;;;;;;4.30;0.95;;;15.90;99.90;;;;;;5042683;28;20120;-72
2023/09/14 07:22:22;;;;;;;4.25;1.70;;;16.00;99.90;;;;;;5045508;28;20041;-71
2023/09/14 07:24:49;;;;;;;4.25;1.77;;;16.10;99.90;;;;;;5047033;28;20037;-71
2023/09/14 07:27:16;;;;;;;6.95;2.40;;;16.20;99.90;;;;;;5045513;28;20029;-72
2023/09/14 07:29:43;;;;;;;5.70;1.67;;;16.30;99.90;;;;;;5043574;28;20044;-72
2023/09/14 07:32:09;;;;;;;4.97;1.40;;;16.30;99.90;;;;;;5042292;28;20396;-71
2023/09/14 07:34:36;;;;;;;6.28;1.73;;;16.40;99.90;;;;;;5022568;28;20041;-71
2023/09/14 07:37:03;;;;;;;5.75;1.80;;;16.40;99.90;;;;;;5039680;28;20404;-71
2023/09/14 07:39:29;;;;;;;5.60;1.55;;;16.40;99.90;;;;;;5021008;28;20033;-71
2023/09/14 07:41:56;;;;;;;6.35;1.67;;;16.40;99.90;;;;;;5044860;28;20041;-72
2023/09/14 07:44:23;;;;;;;5.10;1.98;;;16.50;99.90;;;;;;5025371;28;20028;-71
2023/09/14 07:46:49;;;;;;;5.78;1.83;;;16.60;99.90;;;;;;5025946;28;20035;-71
2023/09/14 07:49:16;;;;;;;3.28;1.00;;;16.70;99.90;;;;;;5026131;28;20052;-71
2023/09/14 07:51:42;;;;;;;4.65;1.13;;;16.80;99.90;;;;;;5041291;28;20412;-71
2023/09/14 07:54:09;;;;;;;4.00;1.17;;;17.00;99.90;;;;;;5050915;28;20036;-71
2023/09/14 07:56:35;;;;;;;4.40;1.20;;;17.10;99.90;;;;;;5055340;28;20381;-71
2023/09/14 07:59:01;;;;;;;3.15;1.25;;;17.30;99.90;;;;;;5027874;28;20041;-72
2023/09/14 08:01:28;;;;;;;4.38;1.30;;;17.40;99.90;;;;;;5044745;28;20053;-72
2023/09/14 08:03:54;;;;;;;5.88;1.20;;;17.50;99.90;;;;;;5042174;28;20491;-72
2023/09/14 08:06:23;;;;;;;4.68;1.00;;;17.60;99.90;;;;;;5044550;28;20396;-72
2023/09/14 08:08:49;;;;;;;3.38;1.20;;;17.70;99.90;;;;;;5025479;28;20044;-71
2023/09/14 08:11:16;;;;;;;3.35;0.85;;;17.80;99.90;;;;;;5035574;28;20038;-70
2023/09/14 08:13:42;;;;;;;5.22;1.38;;;17.90;99.90;;;;;;5046417;28;20043;-72
2023/09/14 08:16:09;;;;;;;5.15;1.45;;;18.10;99.90;;;;;;5044473;28;20021;-71
2023/09/14 08:18:35;;;;;;;6.10;1.42;;;18.20;99.90;;;;;;5006198;28;20037;-72
2023/09/14 08:21:01;;;;;;;4.70;1.35;;;18.20;99.90;;;;;;5044097;28;20051;-71
2023/09/14 08:23:29;;;;;;;4.25;1.02;;;18.20;99.90;;;;;;5039234;28;20036;-70
2023/09/14 08:25:55;;;;;;;4.30;1.25;;;18.20;99.90;;;;;;5020000;28;20542;-70
2023/09/14 08:28:21;;;;;;;3.38;1.17;;;18.30;99.90;;;;;;5040438;28;20416;-71
2023/09/14 08:30:49;;;;;;;4.97;1.20;;;18.30;99.90;;;;;;5020975;28;20448;-71
2023/09/14 08:33:16;;;;;;;7.22;1.48;;;18.40;99.90;;;;;;5058401;28;20040;-71
2023/09/14 08:35:44;;;;;;;8.07;1.67;;;18.50;99.90;;;;;;5040380;28;20033;-71
2023/09/14 08:38:11;;;;;;;3.88;1.23;;;18.60;99.90;;;;;;5028951;28;20672;-70
2023/09/14 08:40:41;;;;;;;8.40;4.22;;;18.70;99.90;;;;;;5038171;28;20060;-70
2023/09/14 08:43:11;;;;;;;14.15;6.43;;;18.80;99.90;;;;;;5028438;28;20426;-71
2023/09/14 08:45:39;;;;;;;10.32;5.05;;;18.90;99.90;;;;;;5033289;28;20037;-71
2023/09/14 08:48:06;;;;;;;7.50;2.63;;;19.00;99.90;;;;;;5018179;28;20044;-71
2023/09/14 08:50:34;;;;;;;6.45;1.58;;;19.10;99.90;;;;;;5039350;28;20379;-71
2023/09/14 08:53:01;;;;;;;4.15;1.30;;;19.20;99.90;;;;;;5042418;28;20037;-70
2023/09/14 08:55:34;;;;;;;5.32;1.45;;;19.30;99.90;;;;;;5038766;28;20052;-71
2023/09/14 08:58:01;;;;;;;5.22;1.27;;;19.40;99.90;;;;;;5024643;28;20036;-71
2023/09/14 09:00:30;;;;;;;5.60;1.55;;;19.50;99.90;;;;;;5023246;28;20037;-70
2023/09/14 09:02:57;;;;;;;4.18;1.02;;;19.50;99.90;;;;;;5039788;28;20324;-71
2023/09/14 09:05:25;;;;;;;5.72;1.33;;;19.60;99.90;;;;;;5005285;28;20041;-70
2023/09/14 09:07:54;;;;;;;4.93;1.55;;;19.60;99.90;;;;;;5040305;28;20060;-71
2023/09/14 09:10:26;;;;;;;5.82;1.80;;;19.60;99.90;;;;;;5034542;28;20037;-71
2023/09/14 09:12:54;;;;;;;;;;;19.60;99.90;;;;;;5035916;28;20404;-72
2023/09/14 09:15:24;;;;;;;3.45;1.00;;;19.70;99.90;;;;;;5028120;28;19908;-70
2023/09/14 09:17:54;;;;;;;5.57;1.67;;;19.80;99.90;;;;;;5052732;28;20056;-71
2023/09/14 09:20:25;;;;;;;6.78;2.53;;;19.90;99.90;;;;;;5038940;28;20038;-71
2023/09/14 09:22:54;;;;;;;6.07;2.13;;;20.00;99.90;;;;;;5042987;28;20029;-71
2023/09/14 09:25:22;;;;;;;6.55;2.92;;;20.10;99.90;;;;;;5044764;28;20039;-72
2023/09/14 09:28:00;;;;;;;6.35;2.03;;;20.20;99.90;;;;;;5050000;28;20045;-71
2023/09/14 09:30:35;;;;;;;7.55;2.70;;;20.30;99.90;;;;;;5026579;28;20048;-71
2023/09/14 09:33:01;;;;;;;4.80;2.70;;;20.30;99.90;;;;;;5036689;28;20048;-71
2023/09/14 09:35:29;;;;;;;7.60;2.88;;;20.40;99.90;;;;;;5039858;28;20032;-72
2023/09/14 09:37:58;;;;;;;6.13;2.40;;;20.50;99.90;;;;;;5028060;28;20503;-71
2023/09/14 09:40:27;;;;;;;7.28;3.08;;;20.50;99.90;;;;;;5006292;28;20055;-71
2023/09/14 09:42:54;;;;;;;8.10;2.40;;;20.60;99.90;;;;;;5022916;28;20291;-72
2023/09/14 09:45:25;;;;;;;6.57;2.85;;;20.70;99.90;;;;;;5040621;28;20060;-72
2023/09/14 09:47:54;;;;;;;8.38;2.55;;;20.90;99.90;;;;;;5022460;28;20047;-70
2023/09/14 09:50:22;;;;;;;4.60;2.50;;;21.00;99.90;;;;;;5015061;28;20029;-72
2023/09/14 09:52:49;;;;;;;7.65;3.33;;;21.00;99.90;;;;;;5033261;28;20037;-71
2023/09/14 09:55:22;;;;;;;5.00;2.60;;;21.10;99.90;;;;;;5035654;28;20396;-72
2023/09/14 09:57:54;;;;;;;6.10;2.17;;;21.20;99.90;;;;;;5042574;28;20476;-71
2023/09/14 10:00:21;;;;;;;;;;;21.20;99.90;;;;;;5026035;28;20029;-71
2023/09/14 10:02:53;;;;;;;4.47;1.67;;;21.20;99.90;;;;;;5049669;28;19917;-71
2023/09/14 10:05:30;;;;;;;5.32;1.58;;;21.10;99.90;;;;;;5044562;28;20021;-70
2023/09/14 10:07:58;;;;;;;4.85;1.75;;;21.30;99.90;;;;;;5033957;28;20036;-71
2023/09/14 10:10:26;;;;;;;6.05;2.50;;;21.40;99.90;;;;;;5042880;28;20025;-71
2023/09/14 10:12:54;;;;;;;3.83;1.40;;;21.40;99.90;;;;;;5040451;28;20440;-72
2023/09/14 10:15:21;;;;;;;7.93;1.85;;;21.40;99.90;;;;;;5030670;28;20029;-72
2023/09/14 10:17:52;;;;;;;3.75;1.60;;;21.50;99.90;;;;;;5026704;28;20037;-71
2023/09/14 10:20:20;;;;;;;4.85;1.30;;;21.80;99.90;;;;;;5033856;28;20025;-70
2023/09/14 10:22:48;;;;;;;7.40;1.70;;;22.40;99.90;;;;;;5006564;28;20049;-71
2023/09/14 10:25:19;;;;;;;8.15;1.70;;;23.00;99.90;;;;;;5041150;28;20041;-73
2023/09/14 10:27:45;;;;;;;3.10;1.90;;;23.70;99.90;;;;;;5004501;28;20227;-74
2023/09/14 10:30:20;;;;;;;3.80;1.80;;;24.30;99.90;;;;;;5037814;28;20615;-73
2023/09/14 10:32:48;;;;;;;9.63;6.68;;;24.80;99.90;;;;;;5021577;28;20046;-74
2023/09/14 10:35:17;;;;;;;6.88;3.80;;;25.30;99.90;;;;;;5029048;28;20107;-74
2023/09/14 10:37:45;;;;;;;4.80;1.83;;;25.80;99.90;;;;;;5018504;28;20054;-71
2023/09/14 10:40:13;;;;;;;5.32;1.95;;;25.60;99.90;;;;;;5053886;28;20483;-71
2023/09/14 10:42:43;;;;;;;3.92;1.10;;;25.10;99.90;;;;;;5035868;28;20037;-71
2023/09/14 10:45:11;;;;;;;3.63;1.38;;;24.90;99.90;;;;;;5040311;28;20044;-72
2023/09/14 10:47:45;;;;;;;2.90;1.40;;;25.30;99.90;;;;;;5026038;28;20040;-71
2023/09/14 10:50:12;;;;;;;3.85;1.40;;;25.80;99.90;;;;;;5043035;28;20040;-71
2023/09/14 10:52:40;;;;;;;4.93;1.52;;;25.90;99.90;;;;;;5055600;28;20037;-75
2023/09/14 10:55:09;;;;;;;3.70;1.70;;;26.00;99.90;;;;;;5047234;28;20024;-74
2023/09/14 10:57:40;;;;;;;3.17;1.40;;;26.40;99.90;;;;;;5031177;28;20029;-76
2023/09/14 11:00:08;;;;;;;;;;;27.00;99.70;;;;;;5042777;28;20040;-75
2023/09/14 11:02:39;;;;;;;5.65;2.33;;;27.50;98.50;;;;;;5030609;28;19924;-76
2023/09/14 11:05:16;;;;;;;6.28;3.35;;;27.70;97.10;;;;;;5015147;28;20381;-75
2023/09/14 11:07:53;;;;;;;8.18;5.57;;;27.30;96.20;;;;;;5039899;28;20042;-74
2023/09/14 11:10:22;;;;;;;6.03;3.10;;;26.80;96.10;;;;;;5038843;28;20083;-76
2023/09/14 11:12:49;;;;;;;5.25;1.90;;;26.20;96.00;;;;;;5060956;28;20041;-75
2023/09/14 11:15:22;;;;;;;3.58;1.58;;;25.80;96.10;;;;;;5027822;28;20037;-72
2023/09/14 11:17:54;;;;;;;7.18;1.20;;;25.40;96.10;;;;;;5056331;28;20393;-72
2023/09/14 11:20:24;;;;;;;5.70;2.28;;;25.00;96.50;;;;;;5025644;28;20040;-72
2023/09/14 11:23:00;;;;;;;5.85;1.45;;;24.80;96.80;;;;;;5055571;28;20049;-71
2023/09/14 11:25:33;;;;;;;4.38;1.60;;;24.50;96.90;;;;;;5039859;28;20518;-71
2023/09/14 11:28:00;;;;;;;3.72;1.02;;;24.20;96.80;;;;;;5041737;28;20059;-71
2023/09/14 11:30:30;;;;;;;2.90;0.93;;;24.00;97.20;;;;;;5022611;28;20606;-74
2023/09/14 11:33:00;;;;;;;2.30;1.00;;;24.00;97.60;;;;;;5040927;28;20052;-74
2023/09/14 11:35:40;;;;;;;3.38;1.20;;;24.10;97.60;;;;;;5006015;28;20048;-75
2023/09/14 11:38:16;;;;;;;4.05;1.90;;;24.10;97.70;;;;;;5042082;28;20033;-74
2023/09/14 11:40:43;;;;;;;5.13;1.80;;;24.00;97.70;;;;;;5030293;28;20039;-75
2023/09/14 11:46:01;;;;;;;4.60;1.88;;;23.90;98.10;;;;;;5061589;28;20048;-74
2023/09/14 11:48:29;;;;;;;3.38;1.40;;;23.70;97.90;;;;;;5032460;28;20040;-74
2023/09/14 11:51:00;;;;;;;7.97;3.90;;;23.50;98.10;;;;;;5023990;28;20044;-76
2023/09/14 11:53:31;;;;;;;6.88;2.17;;;23.40;98.10;;;;;;5011185;28;20390;-76
2023/09/14 11:55:57;;;;;;;5.05;3.00;;;23.30;98.30;;;;;;5037592;28;20503;-71
2023/09/14 11:58:24;;;;;;;3.45;1.80;;;23.20;98.60;;;;;;5043491;28;20029;-70
2023/09/14 12:00:53;;;;;;;2.60;1.33;;;23.10;98.60;;;;;;5043336;28;20025;-71
2023/09/14 12:03:20;;;;;;;4.55;1.42;;;23.00;98.70;;;;;;5024806;28;20043;-71
2023/09/14 12:05:47;;;;;;;4.72;1.63;;;23.00;98.80;;;;;;5026130;28;20065;-71
2023/09/14 12:08:16;;;;;;;5.10;1.40;;;22.90;99.10;;;;;;5042821;28;20617;-71
2023/09/14 12:10:44;;;;;;;3.33;1.10;;;22.80;98.80;;;;;;5042374;28;20500;-71
2023/09/14 12:13:12;;;;;;;2.90;1.00;;;22.70;98.70;;;;;;5045902;28;20025;-71
2023/09/14 12:15:41;;;;;;;3.22;1.10;;;22.70;98.80;;;;;;5052331;28;20037;-71
2023/09/14 12:18:07;;;;;;;3.75;1.17;;;22.70;99.00;;;;;;5045850;28;20037;-71
2023/09/14 12:20:35;;;;;;;1.88;1.00;;;22.70;99.00;;;;;;5026526;28;20500;-71
2023/09/14 12:23:03;;;;;;;3.50;1.10;;;22.80;99.00;;;;;;5041272;28;20040;-71
2023/09/14 12:25:29;;;;;;;3.25;1.17;;;22.90;98.70;;;;;;5037246;28;20407;-71
2023/09/14 12:27:56;;;;;;;4.10;1.20;;;23.20;98.80;;;;;;5018122;28;20039;-72
2023/09/14 12:30:23;;;;;;;5.35;1.10;;;24.00;98.50;;;;;;5048333;28;20021;-72
2023/09/14 12:32:50;;;;;;;3.67;1.20;;;25.30;97.70;;;;;;5029537;28;20036;-71
2023/09/14 12:35:17;;;;;;;3.72;0.95;;;26.90;96.80;;;;;;5035483;28;20052;-72
2023/09/14 12:37:44;;;;;;;3.40;1.17;;;28.50;96.00;;;;;;5045848;28;20399;-72
2023/09/14 12:40:12;;;;;;;6.53;1.77;;;29.80;94.40;;;;;;5041089;28;20040;-71
2023/09/14 12:42:43;;;;;;;4.20;1.30;;;30.40;92.30;;;;;;5018922;28;20056;-71
2023/09/14 12:45:12;;;;;;;4.15;1.20;;;30.10;91.10;;;;;;5039925;28;20044;-72
2023/09/14 12:47:40;;;;;;;2.10;0.98;;;29.70;90.40;;;;;;5030477;28;20051;-72
2023/09/14 12:50:15;;;;;;;2.50;1.10;;;29.30;90.30;;;;;;5044659;28;20040;-71
2023/09/14 12:52:43;;;;;;;2.60;0.90;;;28.60;90.20;;;;;;5030738;28;20431;-71
2023/09/14 12:55:17;;;;;;;3.17;1.17;;;27.90;90.40;;;;;;5044219;28;20040;-72